Time;durP1;ratioP1;P1;durP2;ratioP2;P2;SDS_P1;SDS_P2;PMS_P1;PMS_P2;Temp;Humidity;BMP_temperature;BMP_pressure;BME280_temperature;BME280_humidity;BME280_pressure;Samples;Min_cycle;Max_cycle;Signal;HPM_P1;HPM_P2
2022/08/08 00:00:42;;;;;;;1.45;0.77;;;21.40;62.10;;;;;;5096425;28;20565;-70
2022/08/08 00:03:24;;;;;;;1.77;0.88;;;21.40;62.30;;;;;;5095000;28;20028;-70
2022/08/08 00:06:00;;;;;;;1.02;0.68;;;21.30;62.30;;;;;;5096541;28;20048;-70
2022/08/08 00:08:32;;;;;;;1.45;0.98;;;21.00;62.70;;;;;;5094860;28;20384;-70
2022/08/08 00:11:20;;;;;;;2.17;0.93;;;21.00;62.90;;;;;;5095766;28;20491;-70
2022/08/08 00:14:00;;;;;;;2.03;0.98;;;21.00;63.00;;;;;;5093003;28;20124;-69
2022/08/08 00:16:35;;;;;;;0.90;0.70;;;21.00;63.10;;;;;;5096485;28;20027;-70
2022/08/08 00:19:17;;;;;;;1.27;0.88;;;20.80;63.40;;;;;;5095205;28;20028;-69
2022/08/08 00:21:58;;;;;;;1.83;0.70;;;20.90;63.60;;;;;;5094448;28;20066;-69
2022/08/08 00:24:33;;;;;;;2.55;1.23;;;20.90;63.70;;;;;;5095711;28;20476;-69
2022/08/08 00:27:03;;;;;;;2.45;0.98;;;20.70;64.10;;;;;;5095902;28;20039;-69
2022/08/08 00:29:47;;;;;;;1.75;0.80;;;20.90;63.90;;;;;;5095566;28;20103;-69
2022/08/08 00:32:21;;;;;;;1.33;0.80;;;21.00;64.10;;;;;;5094126;28;20115;-69
2022/08/08 00:35:19;;;;;;;1.58;1.00;;;20.90;64.20;;;;;;5095171;28;20066;-69
2022/08/08 00:38:06;;;;;;;1.58;1.00;;;20.80;64.50;;;;;;5095594;28;20012;-69
2022/08/08 00:40:32;;;;;;;;;;;20.70;64.60;;;;;;5094364;28;20069;-70
2022/08/08 00:43:08;;;;;;;1.17;0.80;;;20.80;64.70;;;;;;5093797;28;20315;-69
2022/08/08 00:45:52;;;;;;;2.72;1.85;;;20.90;64.40;;;;;;5095324;28;20050;-69
2022/08/08 00:48:39;;;;;;;1.60;0.90;;;20.80;64.10;;;;;;5095178;28;20375;-69
2022/08/08 00:51:22;;;;;;;1.90;1.00;;;20.80;64.10;;;;;;5093710;28;20028;-69
2022/08/08 00:54:28;;;;;;;1.80;0.70;;;20.70;64.00;;;;;;5095268;28;20254;-69
2022/08/08 00:57:13;;;;;;;3.03;1.15;;;20.70;64.10;;;;;;5063624;28;20109;-69
2022/08/08 00:59:48;;;;;;;2.30;1.20;;;20.70;64.40;;;;;;5095380;28;20379;-69
2022/08/08 01:02:38;;;;;;;1.15;0.73;;;20.70;64.60;;;;;;5094977;28;20483;-69
2022/08/08 01:05:07;;;;;;;2.35;0.90;;;20.60;64.90;;;;;;5094834;28;20047;-69
2022/08/08 01:07:53;;;;;;;3.72;1.13;;;20.60;65.60;;;;;;5093441;28;20028;-69
2022/08/08 01:10:37;;;;;;;2.42;1.00;;;20.50;67.20;;;;;;5092868;28;20032;-70
2022/08/08 01:13:34;;;;;;;1.40;0.88;;;20.40;66.70;;;;;;5095176;28;20059;-69
2022/08/08 01:16:21;;;;;;;3.70;1.10;;;20.20;66.60;;;;;;5094499;28;20027;-69
2022/08/08 01:18:57;;;;;;;2.63;0.90;;;19.80;67.50;;;;;;5093280;28;20157;-69
2022/08/08 01:21:57;;;;;;;0.95;0.80;;;19.80;68.20;;;;;;5094631;28;20064;-69
2022/08/08 01:24:34;;;;;;;2.75;0.90;;;19.60;68.10;;;;;;5094451;28;20404;-69
2022/08/08 01:27:18;;;;;;;1.50;1.05;;;19.60;68.40;;;;;;5094747;28;20051;-69
2022/08/08 01:30:22;;;;;;;2.75;1.30;;;19.50;69.20;;;;;;5093132;28;20435;-69
2022/08/08 01:33:25;;;;;;;0.80;0.80;;;19.20;69.80;;;;;;5094318;28;20032;-69
2022/08/08 01:36:18;;;;;;;1.00;0.80;;;19.20;70.10;;;;;;5094403;28;20027;-69
2022/08/08 01:39:23;;;;;;;1.17;0.90;;;19.30;69.40;;;;;;5094363;28;20027;-69
2022/08/08 01:41:49;;;;;;;2.17;0.95;;;19.40;69.50;;;;;;5093107;28;20042;-69
2022/08/08 01:44:58;;;;;;;3.07;0.80;;;19.50;69.60;;;;;;5093025;28;20119;-69
2022/08/08 01:47:37;;;;;;;1.50;0.80;;;19.30;69.90;;;;;;5032054;28;20268;-69
2022/08/08 01:50:17;;;;;;;2.13;0.82;;;19.20;70.00;;;;;;5032056;28;20485;-68
2022/08/08 01:53:32;;;;;;;2.25;0.85;;;19.30;70.00;;;;;;5015193;28;20048;-68
2022/08/08 01:56:33;;;;;;;1.30;0.82;;;19.10;70.60;;;;;;5015411;28;20017;-69
2022/08/08 01:59:20;;;;;;;2.25;0.80;;;19.10;71.30;;;;;;5038362;28;20021;-68
2022/08/08 02:02:21;;;;;;;4.00;1.00;;;18.90;73.00;;;;;;5032403;28;20088;-68
2022/08/08 02:05:22;;;;;;;2.65;1.08;;;18.70;72.90;;;;;;5028155;28;20041;-69
2022/08/08 02:08:15;;;;;;;1.98;0.80;;;18.70;73.30;;;;;;5027784;28;20029;-68
2022/08/08 02:10:53;;;;;;;2.28;0.88;;;18.40;74.20;;;;;;5032087;28;20052;-69
2022/08/08 02:13:28;;;;;;;2.75;0.90;;;18.40;74.80;;;;;;5031465;28;20530;-69
2022/08/08 02:16:19;;;;;;;1.10;0.90;;;18.40;75.00;;;;;;5032077;28;20038;-69
2022/08/08 02:18:57;;;;;;;2.55;1.17;;;18.50;75.20;;;;;;5031604;28;20034;-69
2022/08/08 02:24:20;;;;;;;1.45;0.80;;;18.70;75.40;;;;;;5093925;28;20116;-69
2022/08/08 02:26:53;;;;;;;1.42;0.70;;;18.60;75.70;;;;;;5093823;28;20024;-69
2022/08/08 02:29:32;;;;;;;3.95;1.15;;;18.70;75.50;;;;;;5093406;28;20074;-69
2022/08/08 02:32:16;;;;;;;3.13;1.10;;;18.70;75.20;;;;;;5093652;28;20034;-68
2022/08/08 02:35:02;;;;;;;3.20;1.20;;;18.70;75.00;;;;;;5093456;28;20020;-69
2022/08/08 02:37:58;;;;;;;2.22;0.70;;;18.80;74.70;;;;;;5091436;28;20049;-69
2022/08/08 02:40:55;;;;;;;1.10;0.90;;;18.90;74.30;;;;;;5092050;28;20066;-69
2022/08/08 02:43:55;;;;;;;1.70;0.70;;;18.90;73.20;;;;;;5092213;28;20136;-69
2022/08/08 02:46:39;;;;;;;1.40;0.90;;;18.90;72.70;;;;;;5093365;28;20024;-69
2022/08/08 02:49:27;;;;;;;2.78;0.98;;;18.90;72.60;;;;;;5091999;28;20020;-68
2022/08/08 02:52:34;;;;;;;1.30;0.80;;;18.90;72.30;;;;;;5093745;28;20067;-70
2022/08/08 02:55:06;;;;;;;2.13;0.75;;;18.90;72.20;;;;;;5093910;28;20016;-69
2022/08/08 02:58:02;;;;;;;1.90;1.08;;;18.90;71.80;;;;;;5092364;28;20032;-69
2022/08/08 03:00:45;;;;;;;2.88;0.80;;;18.80;71.50;;;;;;5093310;28;20415;-69
2022/08/08 03:03:49;;;;;;;1.30;0.82;;;18.70;71.90;;;;;;5092814;28;20060;-69
2022/08/08 03:06:52;;;;;;;1.08;0.88;;;18.80;71.90;;;;;;5093039;28;20402;-69
2022/08/08 03:09:41;;;;;;;2.28;0.90;;;18.70;71.80;;;;;;5093114;28;20488;-68
2022/08/08 03:12:47;;;;;;;1.30;0.85;;;18.30;72.40;;;;;;5092071;28;20028;-69
2022/08/08 03:15:36;;;;;;;3.85;1.20;;;18.30;72.80;;;;;;5093436;28;20046;-69
2022/08/08 03:18:35;;;;;;;2.95;1.08;;;18.10;73.00;;;;;;5092255;28;20422;-69
2022/08/08 03:21:00;;;;;;;3.70;0.73;;;17.80;73.70;;;;;;5059975;28;20054;-69
2022/08/08 03:23:29;;;;;;;1.20;0.93;;;17.60;74.30;;;;;;5092992;28;20477;-69
2022/08/08 03:25:56;;;;;;;1.83;0.70;;;17.50;74.80;;;;;;5094488;28;20016;-69
2022/08/08 03:28:43;;;;;;;1.33;0.80;;;17.30;75.00;;;;;;5091615;28;20115;-69
2022/08/08 03:33:53;;;;;;;4.43;1.15;;;17.00;76.00;;;;;;5093152;28;20042;-69
2022/08/08 03:36:19;;;;;;;2.60;0.93;;;17.00;76.10;;;;;;5091891;28;20123;-69
2022/08/08 03:38:49;;;;;;;1.38;0.88;;;17.20;75.80;;;;;;5091610;28;20123;-69
2022/08/08 03:41:15;;;;;;;1.63;1.05;;;17.30;75.50;;;;;;5092612;28;20028;-69
2022/08/08 03:43:41;;;;;;;;;;;17.10;75.40;;;;;;5092933;28;20039;-70
2022/08/08 03:46:07;;;;;;;1.80;1.02;;;17.10;75.60;;;;;;5092751;28;19904;-68
2022/08/08 03:48:32;;;;;;;3.17;0.80;;;17.20;75.70;;;;;;5095349;28;20050;-70
2022/08/08 03:50:58;;;;;;;1.27;0.77;;;17.10;75.70;;;;;;5095011;28;20074;-69
2022/08/08 03:53:25;;;;;;;2.03;0.90;;;17.10;76.10;;;;;;5095389;28;20020;-69
2022/08/08 03:55:51;;;;;;;1.65;0.88;;;17.10;76.30;;;;;;5097045;28;20035;-69
2022/08/08 03:58:20;;;;;;;2.50;1.00;;;17.10;76.40;;;;;;5097059;28;20024;-69
2022/08/08 04:00:54;;;;;;;1.60;0.80;;;17.20;76.70;;;;;;5097167;28;20254;-70
2022/08/08 04:03:21;;;;;;;0.98;0.80;;;17.20;77.10;;;;;;5095597;28;20119;-70
2022/08/08 04:05:48;;;;;;;2.90;1.20;;;17.10;77.50;;;;;;5097489;28;20082;-68
2022/08/08 04:08:21;;;;;;;1.88;0.98;;;17.10;77.90;;;;;;5095725;28;20028;-68
2022/08/08 04:10:50;;;;;;;4.63;0.93;;;17.10;78.60;;;;;;5096968;28;20060;-69
2022/08/08 04:13:17;;;;;;;2.33;1.10;;;16.90;79.20;;;;;;5095535;28;20107;-68
2022/08/08 04:15:43;;;;;;;2.03;0.90;;;16.80;79.60;;;;;;5097830;28;20027;-70
2022/08/08 04:18:09;;;;;;;1.20;0.90;;;16.80;80.20;;;;;;5099675;28;20107;-69
2022/08/08 04:20:34;;;;;;;2.75;0.85;;;16.70;80.50;;;;;;5099588;28;20074;-69
2022/08/08 04:23:00;;;;;;;2.25;1.00;;;16.80;80.60;;;;;;5100826;28;20083;-69
2022/08/08 04:25:25;;;;;;;2.30;1.00;;;16.80;80.90;;;;;;5104454;28;20032;-69
2022/08/08 04:27:51;;;;;;;6.82;1.20;;;16.90;80.80;;;;;;5103354;28;20050;-69
2022/08/08 04:30:17;;;;;;;2.03;1.05;;;17.00;80.70;;;;;;5098517;28;20036;-68
2022/08/08 04:32:43;;;;;;;1.75;1.20;;;16.90;81.00;;;;;;5097244;28;20074;-68
2022/08/08 04:35:08;;;;;;;2.38;0.80;;;16.90;81.20;;;;;;5096180;28;20103;-69
2022/08/08 04:37:34;;;;;;;1.55;0.77;;;17.00;81.10;;;;;;5096155;28;20086;-68
2022/08/08 04:40:00;;;;;;;1.38;0.93;;;17.00;81.00;;;;;;5095823;28;20024;-68
2022/08/08 04:42:27;;;;;;;2.45;0.90;;;17.10;80.90;;;;;;5095909;28;20468;-68
2022/08/08 04:44:54;;;;;;;1.75;0.85;;;17.10;80.70;;;;;;5095476;28;20028;-68
2022/08/08 04:47:20;;;;;;;2.03;0.90;;;17.10;81.10;;;;;;5094302;28;20023;-67
2022/08/08 04:49:46;;;;;;;2.03;1.00;;;17.10;80.70;;;;;;5095748;28;20016;-67
2022/08/08 04:52:12;;;;;;;1.77;1.05;;;17.20;81.00;;;;;;5094231;28;20372;-68
2022/08/08 04:54:37;;;;;;;1.95;1.13;;;17.20;80.70;;;;;;5095365;28;20024;-68
2022/08/08 04:57:03;;;;;;;1.35;0.80;;;17.30;80.60;;;;;;5095081;28;20032;-67
2022/08/08 04:59:29;;;;;;;5.60;0.90;;;17.40;80.10;;;;;;5094657;28;20027;-67
2022/08/08 05:01:54;;;;;;;1.50;0.80;;;17.40;80.10;;;;;;5094003;28;20028;-67
2022/08/08 05:04:20;;;;;;;3.13;1.00;;;17.40;79.90;;;;;;5093655;28;20294;-66
2022/08/08 05:06:47;;;;;;;0.93;0.80;;;17.40;80.10;;;;;;5096008;28;20035;-68
2022/08/08 05:09:12;;;;;;;1.45;0.82;;;17.40;79.90;;;;;;5099709;28;20028;-66
2022/08/08 05:11:38;;;;;;;3.83;2.03;;;17.50;79.80;;;;;;5101177;28;20024;-67
2022/08/08 05:14:04;;;;;;;1.67;0.90;;;17.60;79.40;;;;;;5101129;28;20567;-68
2022/08/08 05:16:30;;;;;;;3.80;0.90;;;17.60;79.30;;;;;;5095694;28;20020;-68
2022/08/08 05:18:55;;;;;;;2.47;1.10;;;17.70;79.00;;;;;;5094692;28;20024;-68
2022/08/08 05:21:21;;;;;;;2.97;0.90;;;17.70;78.70;;;;;;5094683;28;20028;-68
2022/08/08 05:23:46;;;;;;;1.80;0.85;;;17.70;78.60;;;;;;5094441;28;20379;-68
2022/08/08 05:26:12;;;;;;;3.67;1.00;;;17.80;78.40;;;;;;5094799;28;20412;-68
2022/08/08 05:28:38;;;;;;;1.70;1.03;;;17.70;78.30;;;;;;5093454;28;20267;-66
2022/08/08 05:31:03;;;;;;;2.27;0.80;;;17.70;78.60;;;;;;5094828;28;20266;-67
2022/08/08 05:33:29;;;;;;;5.17;1.10;;;17.60;78.30;;;;;;5094399;28;20297;-68
2022/08/08 05:35:58;;;;;;;2.08;0.98;;;17.80;78.20;;;;;;5094327;28;20028;-68
2022/08/08 05:38:27;;;;;;;1.67;0.90;;;17.70;77.70;;;;;;5095286;28;20067;-67
2022/08/08 05:40:55;;;;;;;4.18;0.90;;;17.50;78.20;;;;;;5094492;28;20024;-67
2022/08/08 05:43:25;;;;;;;3.25;0.98;;;17.60;78.80;;;;;;5094255;28;20028;-67
2022/08/08 05:45:56;;;;;;;3.22;1.10;;;17.40;79.00;;;;;;5093887;28;20035;-67
2022/08/08 05:48:22;;;;;;;4.03;0.90;;;17.60;79.20;;;;;;5094172;28;20016;-66
2022/08/08 05:50:49;;;;;;;3.28;1.25;;;17.60;79.40;;;;;;5093767;28;20031;-67
2022/08/08 05:53:16;;;;;;;2.28;1.10;;;17.40;79.90;;;;;;5093491;28;20031;-67
2022/08/08 05:55:43;;;;;;;4.93;1.83;;;17.50;80.00;;;;;;5093831;28;20016;-68
2022/08/08 05:58:11;;;;;;;2.67;1.25;;;17.60;80.10;;;;;;5094174;28;20024;-67
2022/08/08 06:00:37;;;;;;;2.17;1.20;;;17.80;79.40;;;;;;5095157;28;20032;-67
2022/08/08 06:03:10;;;;;;;4.10;1.35;;;18.00;78.80;;;;;;5094615;28;20024;-66
2022/08/08 06:05:50;;;;;;;1.20;0.90;;;18.20;78.40;;;;;;5095027;28;20039;-67
2022/08/08 06:08:26;;;;;;;2.28;1.10;;;18.30;78.30;;;;;;5094277;28;20099;-66
2022/08/08 06:10:54;;;;;;;5.25;1.30;;;18.40;78.10;;;;;;5093813;28;20024;-67
2022/08/08 06:13:20;;;;;;;2.42;1.00;;;18.50;77.80;;;;;;5092102;28;20036;-67
2022/08/08 06:15:48;;;;;;;4.18;1.10;;;18.30;77.90;;;;;;5092324;28;20016;-67
2022/08/08 06:18:15;;;;;;;1.73;0.98;;;18.40;78.20;;;;;;5093748;28;20024;-67
2022/08/08 06:20:43;;;;;;;2.30;0.90;;;18.50;77.50;;;;;;5092065;28;20431;-67
2022/08/08 06:23:09;;;;;;;2.70;0.90;;;18.60;77.20;;;;;;5093273;28;20032;-66
2022/08/08 06:25:38;;;;;;;1.92;0.90;;;18.70;76.60;;;;;;5093368;28;20101;-66
2022/08/08 06:28:14;;;;;;;1.73;1.00;;;18.80;76.80;;;;;;5093631;28;20040;-67
2022/08/08 06:30:42;;;;;;;3.28;1.50;;;18.80;76.70;;;;;;5093434;28;20031;-67
2022/08/08 06:33:11;;;;;;;1.55;0.82;;;19.00;76.00;;;;;;5093330;28;20123;-67
2022/08/08 06:35:44;;;;;;;1.58;0.88;;;19.10;74.90;;;;;;5092105;28;20076;-66
2022/08/08 06:38:10;;;;;;;2.10;0.90;;;19.20;75.10;;;;;;5093570;28;20055;-67
2022/08/08 06:40:38;;;;;;;1.55;1.00;;;19.30;74.10;;;;;;5093577;28;20020;-67
2022/08/08 06:43:07;;;;;;;2.08;1.10;;;19.30;73.60;;;;;;5093075;28;20024;-66
2022/08/08 06:45:33;;;;;;;4.97;1.00;;;19.40;73.60;;;;;;5091958;28;20093;-67
2022/08/08 06:47:59;;;;;;;2.72;1.00;;;19.40;73.10;;;;;;5092052;28;20024;-67
2022/08/08 06:50:26;;;;;;;1.98;0.88;;;19.50;72.20;;;;;;5093368;28;20370;-66
2022/08/08 06:52:52;;;;;;;2.85;0.75;;;19.40;72.10;;;;;;5093170;28;20035;-67
2022/08/08 06:55:20;;;;;;;2.97;0.80;;;19.60;71.30;;;;;;5091677;28;20533;-67
2022/08/08 06:57:46;;;;;;;3.03;0.90;;;19.70;71.10;;;;;;5093141;28;20425;-67
2022/08/08 07:00:12;;;;;;;1.77;0.73;;;19.80;70.60;;;;;;5092887;28;20034;-67
2022/08/08 07:02:44;;;;;;;2.42;0.98;;;19.90;70.30;;;;;;5092997;28;20107;-67
2022/08/08 07:05:14;;;;;;;2.88;1.00;;;20.10;69.70;;;;;;5091629;28;20040;-67
2022/08/08 07:07:53;;;;;;;4.25;0.82;;;20.20;69.60;;;;;;5093090;28;20469;-67
2022/08/08 07:10:22;;;;;;;2.40;1.00;;;20.40;69.20;;;;;;5093932;28;20034;-67
2022/08/08 07:13:04;;;;;;;1.33;0.95;;;20.50;68.30;;;;;;5123177;22;20070;-68
2022/08/08 07:16:12;;;;;;;1.50;0.88;;;20.60;68.30;;;;;;5114754;28;20495;-68
2022/08/08 07:19:05;;;;;;;1.13;0.82;;;20.70;68.10;;;;;;5056541;28;20032;-68
2022/08/08 07:21:58;;;;;;;1.58;0.80;;;20.70;67.90;;;;;;5055967;28;20033;-69
2022/08/08 07:24:52;;;;;;;2.65;0.70;;;20.80;67.80;;;;;;5057850;28;20083;-70
2022/08/08 07:27:22;;;;;;;3.90;1.17;;;20.90;68.00;;;;;;5040422;28;20080;-70
2022/08/08 07:29:47;;;;;;;3.35;1.25;;;21.10;67.20;;;;;;5057472;28;20037;-70
2022/08/08 07:32:14;;;;;;;3.35;0.80;;;21.10;66.80;;;;;;5039371;28;20029;-70
2022/08/08 07:34:42;;;;;;;1.95;0.93;;;21.20;66.80;;;;;;5057413;28;20025;-69
2022/08/08 07:37:11;;;;;;;1.20;0.80;;;21.40;66.80;;;;;;5056196;28;20108;-68
2022/08/08 07:39:41;;;;;;;3.40;1.17;;;21.60;66.10;;;;;;5040484;28;20029;-68
2022/08/08 07:42:11;;;;;;;5.28;0.90;;;21.70;66.60;;;;;;5040541;28;20025;-69
2022/08/08 07:44:40;;;;;;;2.78;0.80;;;21.90;66.10;;;;;;5056674;28;20029;-69
2022/08/08 07:47:05;;;;;;;1.38;0.90;;;22.00;64.90;;;;;;5056816;28;20088;-68
2022/08/08 07:49:31;;;;;;;2.65;0.90;;;22.00;64.70;;;;;;5039875;28;20060;-68
2022/08/08 07:51:59;;;;;;;2.83;0.80;;;22.10;64.60;;;;;;5049786;28;20039;-68
2022/08/08 07:54:41;;;;;;;2.00;0.90;;;22.20;64.30;;;;;;5096067;28;20031;-68
2022/08/08 07:57:25;;;;;;;2.10;0.80;;;22.30;63.70;;;;;;5096408;28;20017;-68
2022/08/08 07:59:59;;;;;;;3.33;0.80;;;22.50;64.40;;;;;;5096684;28;20487;-69
2022/08/08 08:02:37;;;;;;;5.82;1.10;;;22.60;63.40;;;;;;5096783;28;20132;-69
2022/08/08 08:05:09;;;;;;;4.15;1.05;;;22.70;63.20;;;;;;5098594;28;20081;-69
2022/08/08 08:07:35;;;;;;;1.83;1.15;;;22.70;63.00;;;;;;5097939;28;20494;-69
2022/08/08 08:10:03;;;;;;;5.82;1.40;;;22.90;63.40;;;;;;5099530;28;20024;-69
2022/08/08 08:12:29;;;;;;;2.50;0.80;;;23.00;62.70;;;;;;5100429;28;20028;-69
2022/08/08 08:15:05;;;;;;;2.00;0.95;;;23.10;62.80;;;;;;5095982;28;20024;-69
2022/08/08 08:17:31;;;;;;;;;;;23.30;62.10;;;;;;5098962;28;20488;-69
2022/08/08 08:20:01;;;;;;;5.07;1.10;;;23.50;62.40;;;;;;5097422;28;19926;-69
2022/08/08 08:22:27;;;;;;;2.22;0.90;;;23.70;62.00;;;;;;5098351;28;20031;-68
2022/08/08 08:24:52;;;;;;;1.92;0.82;;;23.90;61.50;;;;;;5097742;28;20028;-69
2022/08/08 08:27:20;;;;;;;;;;;24.10;60.90;;;;;;5097832;28;20024;-70
2022/08/08 08:29:46;;;;;;;2.88;1.00;;;24.70;60.50;;;;;;5096483;28;19904;-69
2022/08/08 08:32:12;;;;;;;1.65;0.80;;;26.30;59.10;;;;;;5094364;28;20392;-69
2022/08/08 08:34:37;;;;;;;;;;;29.40;55.90;;;;;;5093377;28;20028;-68
2022/08/08 08:37:03;;;;;;;3.47;1.10;;;32.40;52.50;;;;;;5096321;28;19904;-70
2022/08/08 08:39:28;;;;;;;1.30;0.75;;;35.30;49.40;;;;;;5096374;28;20480;-69
2022/08/08 08:41:56;;;;;;;2.20;1.00;;;37.10;47.30;;;;;;5095926;28;20024;-69
2022/08/08 08:44:24;;;;;;;1.77;1.00;;;38.80;45.90;;;;;;5096136;28;20495;-68
2022/08/08 08:46:51;;;;;;;1.60;0.82;;;39.60;44.80;;;;;;5096663;28;20031;-69
2022/08/08 08:49:16;;;;;;;2.85;1.10;;;40.50;44.10;;;;;;5097343;28;20024;-69
2022/08/08 08:51:43;;;;;;;1.70;0.95;;;41.60;43.30;;;;;;5097121;28;20028;-68
2022/08/08 08:54:11;;;;;;;1.02;0.88;;;42.40;42.90;;;;;;5096826;28;20028;-69
2022/08/08 08:56:37;;;;;;;1.83;0.90;;;42.60;42.20;;;;;;5096871;28;20012;-68
2022/08/08 08:59:04;;;;;;;2.67;1.33;;;43.00;41.90;;;;;;5096539;28;20031;-69
2022/08/08 09:01:36;;;;;;;2.40;0.88;;;43.30;41.70;;;;;;5094945;28;20118;-69
2022/08/08 09:04:11;;;;;;;1.92;1.17;;;43.10;41.40;;;;;;5096909;28;20024;-68
2022/08/08 09:06:40;;;;;;;1.70;0.95;;;42.60;41.40;;;;;;5095810;28;20472;-69
2022/08/08 09:09:16;;;;;;;1.60;1.00;;;43.30;41.50;;;;;;5112017;28;20387;-69
2022/08/08 09:11:45;;;;;;;3.97;1.08;;;43.90;41.10;;;;;;5094932;28;20035;-69
2022/08/08 09:14:11;;;;;;;2.00;1.27;;;44.00;40.70;;;;;;5094552;28;20032;-68
2022/08/08 09:16:37;;;;;;;1.50;1.30;;;44.20;40.60;;;;;;5096544;28;20479;-70
2022/08/08 09:19:03;;;;;;;3.40;1.00;;;43.40;41.00;;;;;;5094272;28;20384;-69
2022/08/08 09:21:30;;;;;;;1.35;1.10;;;43.90;41.10;;;;;;5095701;28;20024;-69
2022/08/08 09:23:56;;;;;;;2.45;1.00;;;44.40;40.50;;;;;;5096823;28;20065;-69
2022/08/08 09:26:59;;;;;;;3.53;1.02;;;45.00;40.40;;;;;;5096851;28;20035;-70
2022/08/08 09:29:25;;;;;;;1.80;1.13;;;45.10;40.10;;;;;;5098214;28;20020;-69
2022/08/08 09:32:02;;;;;;;4.00;1.38;;;44.40;40.10;;;;;;5096954;28;20028;-69
2022/08/08 09:34:31;;;;;;;1.83;0.82;;;44.40;40.90;;;;;;5097526;28;20400;-69
2022/08/08 09:37:02;;;;;;;4.40;1.23;;;45.20;40.40;;;;;;5094653;28;20103;-69
2022/08/08 09:39:34;;;;;;;2.55;1.30;;;45.60;40.30;;;;;;5094107;28;20027;-69
2022/08/08 09:42:01;;;;;;;1.63;1.30;;;45.80;40.10;;;;;;5093828;28;20545;-68
2022/08/08 09:44:59;;;;;;;3.00;1.15;;;45.40;41.00;;;;;;5096351;28;20136;-69
2022/08/08 09:47:27;;;;;;;1.65;1.40;;;44.30;40.40;;;;;;5093960;28;20407;-69
2022/08/08 09:49:57;;;;;;;3.00;1.10;;;43.80;40.80;;;;;;5092411;28;20028;-69
2022/08/08 09:52:27;;;;;;;1.70;1.20;;;43.70;40.90;;;;;;5092745;28;20048;-69
2022/08/08 09:54:53;;;;;;;1.52;1.23;;;44.00;40.90;;;;;;5094895;28;20484;-69
2022/08/08 09:57:36;;;;;;;1.58;0.90;;;43.40;40.90;;;;;;5094648;28;20103;-69
2022/08/08 10:00:11;;;;;;;4.68;1.40;;;43.50;40.80;;;;;;5095284;28;20020;-68
2022/08/08 10:02:46;;;;;;;2.77;1.43;;;44.40;40.90;;;;;;5093888;28;20035;-68
2022/08/08 10:05:18;;;;;;;2.95;1.20;;;44.10;41.10;;;;;;5096232;28;20599;-68
2022/08/08 10:07:51;;;;;;;2.53;0.93;;;42.60;40.80;;;;;;5093251;28;20028;-68
2022/08/08 10:10:43;;;;;;;2.47;1.13;;;41.80;41.50;;;;;;5095617;28;20435;-69
2022/08/08 10:13:18;;;;;;;1.35;1.00;;;42.30;41.70;;;;;;5092735;28;20436;-69
2022/08/08 10:15:50;;;;;;;1.58;1.00;;;42.90;41.10;;;;;;5094327;28;20028;-68
2022/08/08 10:18:35;;;;;;;2.13;1.40;;;43.10;41.10;;;;;;5097377;28;20360;-70
2022/08/08 10:21:08;;;;;;;3.13;1.20;;;42.50;41.20;;;;;;5095627;28;20020;-69
2022/08/08 10:23:34;;;;;;;1.58;1.30;;;41.20;41.20;;;;;;5093764;28;20414;-68
2022/08/08 10:26:02;;;;;;;1.83;1.17;;;41.30;41.30;;;;;;5095469;28;20111;-69
2022/08/08 10:28:30;;;;;;;1.05;0.95;;;41.90;40.80;;;;;;5098720;28;20132;-69
2022/08/08 10:32:30;;;;;;;1.25;0.90;;;41.50;40.30;;;;;;5094927;28;20361;-70
2022/08/08 10:33:49;;;;;;;1.60;0.82;;;41.60;40.80;;;;;;5101098;28;20035;-69
2022/08/08 10:36:15;;;;;;;3.38;1.48;;;40.80;40.40;;;;;;5101223;28;20020;-70
2022/08/08 10:38:41;;;;;;;6.85;1.25;;;40.30;41.20;;;;;;5100195;28;20069;-69
2022/08/08 10:41:15;;;;;;;1.85;1.00;;;40.10;41.10;;;;;;5097607;28;20028;-69
2022/08/08 10:43:41;;;;;;;3.38;0.90;;;40.30;40.70;;;;;;5096371;28;20031;-70
2022/08/08 10:46:25;;;;;;;1.40;1.00;;;39.70;40.00;;;;;;5097738;28;20031;-69
2022/08/08 10:48:55;;;;;;;0.85;0.85;;;40.20;40.90;;;;;;5096482;28;20036;-69
2022/08/08 10:51:26;;;;;;;2.33;0.95;;;39.80;41.40;;;;;;5094941;28;20037;-69
2022/08/08 10:53:54;;;;;;;4.82;1.20;;;39.80;40.90;;;;;;5097942;28;20042;-69
2022/08/08 10:56:20;;;;;;;4.72;1.10;;;38.90;41.60;;;;;;5094062;28;20418;-69
2022/08/08 10:58:46;;;;;;;1.42;0.95;;;40.00;41.40;;;;;;5095030;28;20430;-69
2022/08/08 11:01:13;;;;;;;5.88;1.10;;;39.20;41.20;;;;;;5094584;28;20032;-68
2022/08/08 11:03:41;;;;;;;3.33;0.90;;;38.90;42.10;;;;;;5093681;28;20453;-69
2022/08/08 11:06:06;;;;;;;1.98;0.98;;;39.40;42.10;;;;;;5095148;28;20021;-68
2022/08/08 11:08:32;;;;;;;1.92;0.90;;;39.20;41.00;;;;;;5096338;28;20028;-69
2022/08/08 11:11:06;;;;;;;2.08;0.90;;;38.80;41.30;;;;;;5095990;28;20361;-69
2022/08/08 11:13:42;;;;;;;0.98;0.88;;;37.90;41.80;;;;;;5096434;28;20472;-69
2022/08/08 11:16:16;;;;;;;2.00;0.93;;;37.50;42.40;;;;;;5094278;28;20069;-69
2022/08/08 11:18:43;;;;;;;1.83;0.82;;;36.00;43.20;;;;;;5095196;28;20032;-69
2022/08/08 11:21:10;;;;;;;4.20;1.25;;;34.20;44.70;;;;;;5097826;28;20069;-68
2022/08/08 11:23:40;;;;;;;7.40;1.67;;;32.20;46.40;;;;;;5097386;28;20027;-69
2022/08/08 11:26:05;;;;;;;2.58;1.42;;;31.40;47.60;;;;;;5097511;28;20051;-69
2022/08/08 11:28:35;;;;;;;2.47;0.90;;;30.90;48.30;;;;;;5097024;28;20066;-69
2022/08/08 11:31:03;;;;;;;3.08;1.17;;;30.50;48.70;;;;;;5095784;28;20020;-69
2022/08/08 11:33:31;;;;;;;4.07;1.08;;;30.50;49.00;;;;;;5093298;28;20024;-69
2022/08/08 11:35:57;;;;;;;1.17;0.93;;;30.30;49.00;;;;;;5092123;28;20097;-69
2022/08/08 11:38:26;;;;;;;1.60;0.98;;;30.30;49.00;;;;;;5094227;28;20028;-69
2022/08/08 11:40:53;;;;;;;1.20;0.80;;;30.30;49.30;;;;;;5093826;28;20020;-68
2022/08/08 11:43:21;;;;;;;1.80;0.90;;;30.00;49.60;;;;;;5094318;28;20412;-68
2022/08/08 11:45:48;;;;;;;2.90;0.90;;;29.90;49.10;;;;;;5092556;28;20532;-68
2022/08/08 11:48:15;;;;;;;2.28;0.95;;;29.70;49.60;;;;;;5093557;28;20527;-68
2022/08/08 11:50:42;;;;;;;5.38;1.23;;;29.70;49.50;;;;;;5093127;28;20110;-68
2022/08/08 11:53:09;;;;;;;1.30;0.90;;;29.60;49.10;;;;;;5093794;28;20507;-67
2022/08/08 11:55:46;;;;;;;1.38;1.00;;;29.50;49.10;;;;;;5097458;28;20541;-68
2022/08/08 11:58:11;;;;;;;1.17;0.95;;;29.60;49.20;;;;;;5097739;28;20026;-69
2022/08/08 12:00:45;;;;;;;2.83;0.90;;;29.70;49.10;;;;;;5093241;28;20020;-68
2022/08/08 12:03:17;;;;;;;3.17;1.00;;;29.60;48.80;;;;;;5093940;28;20024;-68
2022/08/08 12:05:44;;;;;;;0.90;0.80;;;29.60;48.90;;;;;;5094359;28;20016;-69
2022/08/08 12:08:10;;;;;;;1.58;1.00;;;29.70;48.10;;;;;;5093699;28;20472;-68
2022/08/08 12:10:48;;;;;;;1.23;0.80;;;29.40;48.40;;;;;;5099556;28;20062;-69
2022/08/08 12:13:20;;;;;;;0.77;0.70;;;29.40;48.50;;;;;;5096417;28;20039;-69
2022/08/08 12:15:48;;;;;;;1.48;0.85;;;29.40;48.70;;;;;;5098476;28;20065;-67
2022/08/08 12:18:21;;;;;;;3.10;0.77;;;29.50;48.30;;;;;;5098032;28;20012;-69
2022/08/08 12:20:47;;;;;;;1.55;0.90;;;29.50;47.90;;;;;;5097627;28;20066;-68
2022/08/08 12:23:13;;;;;;;1.80;0.88;;;29.60;48.30;;;;;;5098081;28;20023;-69
2022/08/08 12:25:41;;;;;;;2.70;1.10;;;29.70;48.20;;;;;;5097490;28;20480;-69
2022/08/08 12:28:12;;;;;;;1.13;0.90;;;29.80;48.30;;;;;;5097000;28;20051;-68
2022/08/08 12:30:39;;;;;;;3.42;1.00;;;29.70;48.30;;;;;;5097102;28;20028;-68
2022/08/08 12:33:19;;;;;;;3.00;0.73;;;29.80;47.80;;;;;;5096807;28;20024;-68
2022/08/08 12:35:44;;;;;;;1.00;0.85;;;29.60;48.20;;;;;;5095588;28;20027;-68
2022/08/08 12:38:13;;;;;;;2.47;1.00;;;29.70;47.50;;;;;;5097094;28;20020;-68
2022/08/08 12:40:44;;;;;;;1.48;1.00;;;29.70;47.50;;;;;;5095861;28;20020;-68
2022/08/08 12:43:10;;;;;;;3.13;0.95;;;29.50;47.70;;;;;;5097323;28;20103;-68
2022/08/08 12:45:40;;;;;;;2.10;1.00;;;29.60;47.70;;;;;;5096194;28;20063;-68
2022/08/08 12:48:17;;;;;;;2.28;0.98;;;29.70;48.00;;;;;;5096013;28;20392;-68
2022/08/08 12:50:45;;;;;;;1.52;1.20;;;29.80;48.00;;;;;;5096984;28;20024;-69
2022/08/08 12:53:31;;;;;;;1.45;0.88;;;29.80;48.10;;;;;;5096115;28;20081;-69
2022/08/08 12:56:00;;;;;;;2.33;0.90;;;29.90;48.00;;;;;;5096976;28;20027;-68
2022/08/08 12:58:28;;;;;;;2.80;0.80;;;30.10;47.10;;;;;;5096314;28;20024;-68
2022/08/08 13:00:54;;;;;;;1.60;0.80;;;30.10;46.90;;;;;;5097667;28;20051;-69
2022/08/08 13:03:31;;;;;;;1.25;0.82;;;30.10;47.30;;;;;;5096463;28;20024;-68
2022/08/08 13:06:08;;;;;;;3.83;1.15;;;30.10;47.10;;;;;;5096482;28;20115;-68
2022/08/08 13:08:43;;;;;;;2.78;1.30;;;29.90;48.00;;;;;;5096403;28;20024;-68
2022/08/08 13:11:18;;;;;;;1.10;0.90;;;30.00;46.90;;;;;;5096686;28;20035;-69
2022/08/08 13:13:50;;;;;;;1.23;0.90;;;30.20;47.10;;;;;;5096104;28;20103;-68
2022/08/08 13:16:21;;;;;;;2.05;0.80;;;30.20;46.60;;;;;;5114605;22;20052;-68
2022/08/08 13:18:47;;;;;;;2.70;0.93;;;30.10;45.90;;;;;;5094701;28;20157;-68
2022/08/08 13:21:13;;;;;;;1.45;0.80;;;30.10;46.20;;;;;;5092402;28;20039;-69
2022/08/08 13:23:39;;;;;;;1.85;0.95;;;30.20;46.10;;;;;;5095324;28;20544;-68
2022/08/08 13:26:09;;;;;;;1.38;0.98;;;30.20;45.80;;;;;;5094612;28;20097;-69